Time;durP1;ratioP1;P1;durP2;ratioP2;P2;SDS_P1;SDS_P2;PMS_P1;PMS_P2;Temp;Humidity;BMP_temperature;BMP_pressure;BME280_temperature;BME280_humidity;BME280_pressure;Samples;Min_cycle;Max_cycle;Signal;HPM_P1;HPM_P2
2022/07/07 00:02:24;;;;;;;14.15;9.48;;;17.20;99.90;;;;;;5054765;28;20048;-70
2022/07/07 00:04:50;;;;;;;12.07;7.95;;;17.20;99.90;;;;;;5071465;28;20040;-70
2022/07/07 00:07:15;;;;;;;11.93;8.05;;;17.10;99.90;;;;;;5071693;28;20058;-70
2022/07/07 00:09:41;;;;;;;14.38;9.02;;;17.10;99.90;;;;;;5071728;28;20493;-70
2022/07/07 00:12:10;;;;;;;12.18;8.75;;;17.10;99.90;;;;;;5071389;28;20489;-71
2022/07/07 00:14:35;;;;;;;13.18;8.25;;;17.10;99.90;;;;;;5071661;28;20508;-71
2022/07/07 00:17:01;;;;;;;12.27;7.70;;;17.10;99.90;;;;;;5071650;28;20044;-71
2022/07/07 00:19:27;;;;;;;13.02;7.60;;;17.10;99.90;;;;;;5055399;28;20468;-71
2022/07/07 00:21:53;;;;;;;13.63;8.55;;;17.00;99.90;;;;;;5054575;28;20405;-71
2022/07/07 00:24:19;;;;;;;13.43;8.23;;;17.00;99.90;;;;;;5071229;28;20131;-71
2022/07/07 00:26:44;;;;;;;11.70;8.25;;;17.00;99.90;;;;;;5071258;28;20090;-71
2022/07/07 00:29:10;;;;;;;14.32;7.90;;;17.00;99.90;;;;;;5071243;28;20048;-71
2022/07/07 00:31:36;;;;;;;13.52;7.75;;;17.00;99.90;;;;;;5071324;28;20040;-71
2022/07/07 00:34:02;;;;;;;9.75;7.45;;;17.00;99.90;;;;;;5071270;28;20381;-71
2022/07/07 00:36:27;;;;;;;12.25;7.18;;;17.00;99.90;;;;;;5054522;28;20048;-71
2022/07/07 00:38:53;;;;;;;12.02;7.40;;;16.90;99.90;;;;;;5071180;28;20033;-71
2022/07/07 00:41:18;;;;;;;10.95;7.57;;;17.00;99.90;;;;;;5071160;28;20124;-71
2022/07/07 00:43:44;;;;;;;13.82;7.05;;;16.90;99.90;;;;;;5071044;28;20040;-71
2022/07/07 00:46:11;;;;;;;12.15;6.60;;;16.90;99.90;;;;;;5071162;28;20044;-71
2022/07/07 00:48:39;;;;;;;11.43;6.57;;;16.90;99.90;;;;;;5074525;28;20033;-71
2022/07/07 00:51:06;;;;;;;11.65;7.50;;;16.90;99.90;;;;;;5057926;28;20032;-71
2022/07/07 00:53:32;;;;;;;11.00;6.97;;;16.90;99.90;;;;;;5058059;28;20374;-71
2022/07/07 00:55:58;;;;;;;11.90;6.90;;;16.90;99.90;;;;;;5074786;28;20032;-71
2022/07/07 00:58:24;;;;;;;11.75;6.90;;;16.90;99.90;;;;;;5074605;28;20497;-71
2022/07/07 01:00:50;;;;;;;9.75;6.00;;;16.90;99.90;;;;;;5074441;28;20043;-71
2022/07/07 01:03:15;;;;;;;11.95;6.93;;;16.90;99.90;;;;;;5057720;28;20040;-70
2022/07/07 01:05:45;;;;;;;9.38;5.50;;;16.90;99.90;;;;;;5074617;28;20040;-70
2022/07/07 01:08:14;;;;;;;12.57;7.35;;;16.90;99.90;;;;;;5058046;28;20045;-70
2022/07/07 01:10:43;;;;;;;9.13;6.10;;;16.90;99.90;;;;;;5057558;28;20052;-70
2022/07/07 01:13:09;;;;;;;6.60;5.88;;;16.80;99.90;;;;;;5074104;28;20037;-70
2022/07/07 01:15:35;;;;;;;11.98;6.40;;;16.90;99.90;;;;;;5057526;28;20070;-70
2022/07/07 01:18:00;;;;;;;11.95;5.60;;;16.90;99.90;;;;;;5057459;28;20107;-70
2022/07/07 01:20:27;;;;;;;8.20;4.72;;;16.90;99.90;;;;;;5057741;28;20044;-70
2022/07/07 01:22:53;;;;;;;10.38;5.50;;;16.90;99.90;;;;;;5074187;28;20382;-70
2022/07/07 01:25:20;;;;;;;10.57;5.40;;;16.90;99.90;;;;;;5073957;28;20461;-70
2022/07/07 01:27:45;;;;;;;9.63;4.40;;;16.80;99.90;;;;;;5074190;28;20045;-70
2022/07/07 01:30:12;;;;;;;8.13;4.43;;;16.80;99.90;;;;;;5073862;28;20416;-70
2022/07/07 01:32:37;;;;;;;8.90;3.80;;;16.80;99.90;;;;;;5073753;28;20075;-70
2022/07/07 01:35:03;;;;;;;7.97;3.65;;;16.70;99.90;;;;;;5073787;28;20071;-70
2022/07/07 01:37:29;;;;;;;9.25;3.60;;;16.70;99.90;;;;;;5074194;28;20040;-70
2022/07/07 01:39:55;;;;;;;8.65;3.90;;;16.60;99.90;;;;;;5073996;28;20098;-70
2022/07/07 01:42:21;;;;;;;9.95;2.90;;;16.60;99.90;;;;;;5073598;28;20049;-70
2022/07/07 01:44:51;;;;;;;7.35;2.90;;;16.60;99.90;;;;;;5056954;28;20127;-70
2022/07/07 01:47:17;;;;;;;8.82;3.00;;;16.60;99.90;;;;;;5073516;28;20411;-70
2022/07/07 01:49:42;;;;;;;9.35;2.70;;;16.60;99.90;;;;;;5073538;28;20136;-70
2022/07/07 01:52:08;;;;;;;7.90;2.85;;;16.50;99.90;;;;;;5056906;28;20123;-70
2022/07/07 01:54:35;;;;;;;9.05;2.75;;;16.50;99.90;;;;;;5073365;28;20088;-70
2022/07/07 01:57:01;;;;;;;10.77;3.05;;;16.50;99.90;;;;;;5073309;28;20044;-70
2022/07/07 01:59:28;;;;;;;8.20;2.85;;;16.50;99.90;;;;;;5073719;28;20063;-70
2022/07/07 02:01:53;;;;;;;7.35;3.35;;;16.50;99.90;;;;;;5073409;28;20033;-70
2022/07/07 02:04:19;;;;;;;8.07;3.83;;;16.40;99.90;;;;;;5073245;28;20413;-70
2022/07/07 02:06:45;;;;;;;10.95;3.53;;;16.40;99.90;;;;;;5073151;28;20048;-70
2022/07/07 02:09:10;;;;;;;7.15;3.28;;;16.40;99.90;;;;;;5056267;28;20040;-70
2022/07/07 02:11:36;;;;;;;8.68;3.83;;;16.40;99.90;;;;;;5072941;28;20041;-70
2022/07/07 02:14:03;;;;;;;7.50;2.60;;;16.40;99.90;;;;;;5073017;28;20037;-70
2022/07/07 02:16:29;;;;;;;7.85;3.13;;;16.40;99.90;;;;;;5073035;28;20044;-70
2022/07/07 02:19:00;;;;;;;6.70;2.80;;;16.40;99.90;;;;;;5073130;28;20039;-70
2022/07/07 02:21:26;;;;;;;7.80;2.75;;;16.40;99.90;;;;;;5072791;28;20485;-70
2022/07/07 02:23:53;;;;;;;5.28;2.60;;;16.30;99.90;;;;;;5073103;28;20032;-70
2022/07/07 02:26:20;;;;;;;9.35;3.15;;;16.40;99.90;;;;;;5072810;28;20086;-70
2022/07/07 02:28:45;;;;;;;5.97;2.40;;;16.30;99.90;;;;;;5072694;28;20036;-70
2022/07/07 02:31:12;;;;;;;6.70;2.90;;;16.40;99.90;;;;;;5072640;28;20040;-70
2022/07/07 02:33:37;;;;;;;6.88;3.33;;;16.40;99.90;;;;;;5072580;28;20032;-70
2022/07/07 02:36:05;;;;;;;6.70;2.80;;;16.40;99.90;;;;;;5072835;28;20036;-70
2022/07/07 02:38:31;;;;;;;6.00;2.35;;;16.40;99.90;;;;;;5056168;28;20531;-70
2022/07/07 02:40:57;;;;;;;7.43;3.30;;;16.40;99.90;;;;;;5072707;28;20487;-70
2022/07/07 02:43:23;;;;;;;9.65;3.70;;;16.50;99.90;;;;;;5072362;28;20140;-70
2022/07/07 02:45:50;;;;;;;7.20;2.97;;;16.50;99.90;;;;;;5072422;28;20086;-70
2022/07/07 02:48:18;;;;;;;6.57;2.83;;;16.50;99.90;;;;;;5072388;28;20048;-70
2022/07/07 02:50:44;;;;;;;7.10;3.10;;;16.50;99.90;;;;;;5072288;28;20127;-70
2022/07/07 02:53:11;;;;;;;8.98;3.10;;;16.50;99.90;;;;;;5072101;28;20131;-70
2022/07/07 02:55:37;;;;;;;10.32;3.10;;;16.50;99.90;;;;;;5072496;28;20033;-70
2022/07/07 02:58:05;;;;;;;10.05;3.13;;;16.50;99.90;;;;;;5072163;28;20492;-70
2022/07/07 03:00:33;;;;;;;9.85;2.88;;;16.40;99.90;;;;;;5072191;28;20036;-71
2022/07/07 03:03:04;;;;;;;12.98;2.83;;;16.40;99.90;;;;;;5072100;28;20044;-71
2022/07/07 03:05:31;;;;;;;8.90;2.85;;;16.40;99.90;;;;;;5055467;28;20051;-71
2022/07/07 03:07:57;;;;;;;10.52;3.30;;;16.40;99.90;;;;;;5072320;28;20087;-71
2022/07/07 03:10:23;;;;;;;10.45;2.95;;;16.40;99.90;;;;;;5071186;28;20048;-71
2022/07/07 03:12:49;;;;;;;8.00;2.33;;;16.30;99.90;;;;;;5072344;28;20041;-71
2022/07/07 03:15:14;;;;;;;9.20;2.92;;;16.30;99.90;;;;;;5072024;28;20382;-71
2022/07/07 03:17:42;;;;;;;11.40;2.70;;;16.30;99.90;;;;;;5072002;28;20036;-71
2022/07/07 03:20:10;;;;;;;9.20;2.80;;;16.40;99.90;;;;;;5072165;28;20452;-71
2022/07/07 03:22:40;;;;;;;14.57;2.85;;;16.30;99.90;;;;;;5071809;28;20040;-71
2022/07/07 03:25:07;;;;;;;13.05;2.70;;;16.30;99.90;;;;;;5055369;28;20511;-71
2022/07/07 03:27:33;;;;;;;12.77;2.67;;;16.30;99.90;;;;;;5071842;28;20072;-71
2022/07/07 03:29:58;;;;;;;9.43;2.70;;;16.30;99.90;;;;;;5071869;28;20508;-71
2022/07/07 03:32:24;;;;;;;11.05;2.63;;;16.30;99.90;;;;;;5054984;28;20041;-71
2022/07/07 03:34:50;;;;;;;12.35;2.40;;;16.30;99.90;;;;;;5055294;28;20103;-71
2022/07/07 03:37:16;;;;;;;9.52;2.28;;;16.20;99.90;;;;;;5071801;28;20089;-71
2022/07/07 03:39:41;;;;;;;9.50;2.42;;;16.20;99.90;;;;;;5071801;28;20044;-71
2022/07/07 03:42:07;;;;;;;10.32;2.30;;;16.30;99.90;;;;;;5071675;28;20413;-71
2022/07/07 03:44:33;;;;;;;8.57;2.33;;;16.20;99.90;;;;;;5071683;28;20094;-71
2022/07/07 03:46:58;;;;;;;11.55;2.25;;;16.30;99.90;;;;;;5072962;28;20119;-71
2022/07/07 03:49:25;;;;;;;11.60;2.33;;;16.20;99.90;;;;;;5071651;28;20033;-71
2022/07/07 03:51:50;;;;;;;11.63;2.20;;;16.30;99.90;;;;;;5071522;28;20552;-71
2022/07/07 03:54:16;;;;;;;12.13;3.03;;;16.20;99.90;;;;;;5055209;28;20143;-71
2022/07/07 03:56:42;;;;;;;8.75;2.17;;;16.20;99.90;;;;;;5071876;28;20374;-71
2022/07/07 03:59:07;;;;;;;11.50;2.30;;;16.20;99.90;;;;;;5071556;28;20416;-71
2022/07/07 04:01:33;;;;;;;10.57;2.08;;;16.20;99.90;;;;;;5071464;28;20048;-71
2022/07/07 04:03:59;;;;;;;12.05;2.08;;;16.20;99.90;;;;;;5071500;28;20119;-71
2022/07/07 04:06:24;;;;;;;10.23;2.03;;;16.20;99.90;;;;;;5071477;28;20044;-71
2022/07/07 04:08:50;;;;;;;9.57;1.77;;;16.20;99.90;;;;;;5071457;28;20044;-71
2022/07/07 04:11:18;;;;;;;10.38;2.20;;;16.20;99.90;;;;;;5071558;28;20052;-71
2022/07/07 04:13:44;;;;;;;9.25;1.83;;;16.20;99.90;;;;;;5071329;28;20037;-71
2022/07/07 04:16:09;;;;;;;11.73;2.25;;;16.10;99.90;;;;;;5054806;28;20082;-71
2022/07/07 04:18:35;;;;;;;11.07;2.00;;;16.20;99.90;;;;;;5071356;28;20123;-70
2022/07/07 04:21:02;;;;;;;10.13;2.42;;;16.20;99.90;;;;;;5072257;28;20488;-70
2022/07/07 04:23:28;;;;;;;7.95;1.73;;;16.20;99.90;;;;;;5075096;28;20036;-70
2022/07/07 04:25:53;;;;;;;9.32;1.38;;;16.20;99.90;;;;;;5075694;28;20086;-71
2022/07/07 04:28:19;;;;;;;3.95;0.98;;;16.10;99.90;;;;;;5075057;28;20532;-71
2022/07/07 04:30:45;;;;;;;7.88;1.02;;;16.10;99.90;;;;;;5075314;28;20512;-71
2022/07/07 04:33:11;;;;;;;9.63;1.13;;;16.00;99.90;;;;;;5074877;28;20045;-71
2022/07/07 04:35:37;;;;;;;7.93;1.40;;;16.00;99.90;;;;;;5074902;28;20037;-71
2022/07/07 04:38:03;;;;;;;8.00;1.80;;;16.00;99.90;;;;;;5075214;28;20071;-71
2022/07/07 04:40:28;;;;;;;11.90;1.60;;;16.00;99.90;;;;;;5074842;28;20563;-71
2022/07/07 04:42:54;;;;;;;7.60;1.10;;;16.00;99.90;;;;;;5058004;28;20040;-71
2022/07/07 04:45:20;;;;;;;9.30;1.58;;;16.00;99.90;;;;;;5074738;28;20036;-71
2022/07/07 04:47:45;;;;;;;9.88;1.35;;;15.90;99.90;;;;;;5074953;28;20033;-70
2022/07/07 04:50:12;;;;;;;8.60;1.30;;;15.90;99.90;;;;;;5074702;28;20037;-70
2022/07/07 04:52:39;;;;;;;8.70;1.40;;;16.00;99.90;;;;;;5074513;28;20052;-71
2022/07/07 04:55:05;;;;;;;6.60;1.45;;;16.00;99.90;;;;;;5074571;28;20119;-71
2022/07/07 04:57:31;;;;;;;7.65;1.70;;;16.00;99.90;;;;;;5074773;28;20043;-71
2022/07/07 04:59:56;;;;;;;6.95;1.83;;;16.00;99.90;;;;;;5074471;28;20040;-71
2022/07/07 05:02:22;;;;;;;9.18;1.48;;;16.00;99.90;;;;;;5074450;28;20040;-71
2022/07/07 05:04:49;;;;;;;8.15;1.17;;;16.00;99.90;;;;;;5074417;28;20094;-71
2022/07/07 05:07:15;;;;;;;8.80;1.58;;;16.00;99.90;;;;;;5057677;28;20052;-71
2022/07/07 05:09:40;;;;;;;10.38;1.77;;;16.00;99.90;;;;;;5074458;28;20041;-71
2022/07/07 05:12:06;;;;;;;8.35;1.75;;;16.10;99.90;;;;;;5057443;28;20492;-71
2022/07/07 05:14:32;;;;;;;9.27;1.77;;;16.10;99.90;;;;;;5074284;28;20036;-71
2022/07/07 05:16:59;;;;;;;6.38;1.08;;;16.10;99.90;;;;;;5074159;28;20041;-71
2022/07/07 05:19:25;;;;;;;9.40;1.30;;;16.10;99.90;;;;;;5074072;28;20076;-71
2022/07/07 05:21:51;;;;;;;6.88;1.30;;;16.20;99.90;;;;;;5074297;28;20044;-70
2022/07/07 05:24:16;;;;;;;8.95;1.40;;;16.20;99.90;;;;;;5074341;28;20405;-70
2022/07/07 05:26:42;;;;;;;6.57;1.45;;;16.10;99.90;;;;;;5074019;28;20044;-70
2022/07/07 05:29:08;;;;;;;7.47;1.27;;;16.10;99.90;;;;;;5073951;28;20074;-70
2022/07/07 05:31:33;;;;;;;7.88;1.20;;;16.10;99.90;;;;;;5073740;28;20094;-70
2022/07/07 05:33:59;;;;;;;8.15;1.40;;;16.10;99.90;;;;;;5073354;28;20045;-70
2022/07/07 05:36:24;;;;;;;8.38;1.10;;;16.10;99.90;;;;;;5073751;28;20518;-70
2022/07/07 05:38:50;;;;;;;6.65;1.38;;;16.00;99.90;;;;;;5073786;28;20068;-70
2022/07/07 05:41:16;;;;;;;8.57;1.45;;;16.00;99.90;;;;;;5073715;28;20044;-70
2022/07/07 05:43:42;;;;;;;10.57;1.55;;;16.10;99.90;;;;;;5073572;28;20067;-72
2022/07/07 05:46:08;;;;;;;9.10;1.80;;;16.10;99.90;;;;;;5057053;28;20083;-70
2022/07/07 05:48:33;;;;;;;9.25;1.85;;;16.10;99.90;;;;;;5073601;28;20228;-70
2022/07/07 05:50:59;;;;;;;11.10;2.20;;;16.10;99.90;;;;;;5073557;28;20032;-70
2022/07/07 05:53:24;;;;;;;8.02;1.75;;;16.20;99.90;;;;;;5056714;28;20040;-71
2022/07/07 05:55:50;;;;;;;9.98;1.95;;;16.30;99.90;;;;;;5073587;28;20041;-71
2022/07/07 05:58:16;;;;;;;8.10;1.70;;;16.30;99.90;;;;;;5056718;28;20054;-71
2022/07/07 06:00:41;;;;;;;8.30;1.85;;;16.30;99.90;;;;;;5073277;28;20037;-71
2022/07/07 06:03:07;;;;;;;11.27;1.90;;;16.40;99.90;;;;;;5073739;28;20051;-70
2022/07/07 06:05:32;;;;;;;10.15;1.70;;;16.50;99.90;;;;;;5073547;28;20442;-70
2022/07/07 06:07:58;;;;;;;10.30;1.63;;;16.60;99.90;;;;;;5073219;28;20549;-71
2022/07/07 06:10:24;;;;;;;8.15;1.65;;;16.60;99.90;;;;;;5073179;28;20047;-71
2022/07/07 06:12:49;;;;;;;12.77;2.58;;;16.70;99.90;;;;;;5056323;28;20044;-70
2022/07/07 06:15:17;;;;;;;14.05;2.33;;;16.80;99.90;;;;;;5056389;28;20044;-70
2022/07/07 06:17:43;;;;;;;10.75;2.10;;;16.80;99.90;;;;;;5072931;28;20441;-70
2022/07/07 06:20:09;;;;;;;9.52;1.90;;;16.70;99.90;;;;;;5072922;28;20039;-70
2022/07/07 06:22:35;;;;;;;7.18;1.83;;;16.60;99.90;;;;;;5072816;28;20474;-71
2022/07/07 06:25:01;;;;;;;10.38;1.90;;;16.70;99.90;;;;;;5072856;28;20033;-70
2022/07/07 06:27:26;;;;;;;10.98;1.95;;;16.70;99.90;;;;;;5073084;28;20037;-70
2022/07/07 06:29:55;;;;;;;7.65;1.75;;;16.70;99.90;;;;;;5073036;28;20471;-70
2022/07/07 06:32:21;;;;;;;7.45;1.70;;;16.80;99.90;;;;;;5072588;28;20416;-70
2022/07/07 06:34:47;;;;;;;8.88;2.10;;;16.80;99.90;;;;;;5072910;28;20095;-70
2022/07/07 06:37:12;;;;;;;13.85;2.22;;;16.90;99.90;;;;;;5072862;28;20464;-70
2022/07/07 06:39:38;;;;;;;11.43;1.80;;;17.00;99.90;;;;;;5072554;28;20089;-70
2022/07/07 06:42:04;;;;;;;10.43;1.60;;;17.10;99.90;;;;;;5072482;28;20048;-70
2022/07/07 06:44:32;;;;;;;11.90;2.17;;;17.10;99.90;;;;;;5072441;28;20115;-70
2022/07/07 06:46:59;;;;;;;9.38;1.65;;;17.10;99.90;;;;;;5056059;28;20396;-70
2022/07/07 06:49:28;;;;;;;9.05;1.50;;;17.10;99.90;;;;;;5055792;28;20497;-70
2022/07/07 06:51:55;;;;;;;6.30;1.77;;;17.10;99.90;;;;;;5072285;28;20401;-70
2022/07/07 06:54:21;;;;;;;12.63;1.92;;;17.10;99.90;;;;;;5055672;28;20378;-71
2022/07/07 06:56:47;;;;;;;7.40;1.50;;;17.00;99.90;;;;;;5072321;28;20086;-70
2022/07/07 06:59:13;;;;;;;6.80;1.20;;;17.00;99.90;;;;;;5072289;28;20131;-71
2022/07/07 07:01:39;;;;;;;4.75;0.80;;;16.90;99.90;;;;;;5072218;28;20032;-71
2022/07/07 07:04:05;;;;;;;3.47;0.80;;;16.90;99.90;;;;;;5055669;28;20043;-71
2022/07/07 07:06:30;;;;;;;5.93;1.00;;;16.90;99.90;;;;;;5055448;28;20401;-71
2022/07/07 07:08:57;;;;;;;4.75;0.50;;;17.00;99.90;;;;;;5055472;28;20044;-70
2022/07/07 07:11:22;;;;;;;5.22;0.82;;;17.10;99.90;;;;;;5072117;28;20408;-70
2022/07/07 07:13:49;;;;;;;7.05;1.30;;;17.10;99.90;;;;;;5072793;28;20045;-70
2022/07/07 07:16:16;;;;;;;4.32;0.88;;;17.10;99.90;;;;;;5072043;28;20055;-71
2022/07/07 07:18:41;;;;;;;5.75;0.90;;;17.10;99.90;;;;;;5072048;28;20405;-71
2022/07/07 07:21:07;;;;;;;5.43;0.90;;;17.20;99.90;;;;;;5072200;28;20032;-71
2022/07/07 07:23:32;;;;;;;7.32;1.00;;;17.30;99.90;;;;;;5055115;28;20420;-71
2022/07/07 07:25:58;;;;;;;3.95;0.90;;;17.40;99.90;;;;;;5071969;28;20071;-71
2022/07/07 07:28:24;;;;;;;2.78;0.60;;;17.50;99.90;;;;;;5071776;28;20093;-71
2022/07/07 07:30:49;;;;;;;6.13;1.00;;;17.50;99.90;;;;;;5071763;28;20036;-71
2022/07/07 07:33:15;;;;;;;6.45;1.08;;;17.50;99.90;;;;;;5071647;28;20079;-71
2022/07/07 07:35:41;;;;;;;5.15;0.90;;;17.50;99.90;;;;;;5071741;28;20044;-71
2022/07/07 07:38:06;;;;;;;5.88;0.90;;;17.60;99.90;;;;;;5071774;28;20047;-71
2022/07/07 07:40:32;;;;;;;4.13;0.93;;;17.70;99.90;;;;;;5071850;28;20072;-71
2022/07/07 07:42:57;;;;;;;5.38;1.02;;;17.80;99.90;;;;;;5071981;28;20056;-71
2022/07/07 07:45:23;;;;;;;6.28;1.08;;;17.90;99.90;;;;;;5071706;28;20040;-71
2022/07/07 07:47:49;;;;;;;2.92;0.82;;;18.10;99.90;;;;;;5072154;28;20135;-71
2022/07/07 07:50:17;;;;;;;4.40;1.13;;;18.20;99.90;;;;;;5071933;28;20152;-71
2022/07/07 07:52:44;;;;;;;5.80;1.30;;;18.40;99.90;;;;;;5054796;28;20045;-71
2022/07/07 07:55:12;;;;;;;3.72;0.77;;;18.40;99.90;;;;;;5054958;28;20045;-71
2022/07/07 07:57:38;;;;;;;4.38;0.75;;;18.40;99.90;;;;;;5075598;28;20040;-72
2022/07/07 08:00:06;;;;;;;3.58;0.80;;;18.30;99.90;;;;;;5075936;28;20485;-72
2022/07/07 08:02:32;;;;;;;2.10;0.50;;;18.10;99.90;;;;;;5058780;28;20051;-72
2022/07/07 08:04:58;;;;;;;4.07;0.70;;;17.80;99.90;;;;;;5075624;28;20041;-72
2022/07/07 08:07:23;;;;;;;3.20;0.57;;;17.80;99.90;;;;;;5075575;28;20040;-71
2022/07/07 08:09:49;;;;;;;2.70;0.50;;;17.90;99.90;;;;;;5075668;28;20048;-72
2022/07/07 08:12:15;;;;;;;3.10;0.60;;;18.00;99.90;;;;;;5075579;28;20429;-72
2022/07/07 08:14:41;;;;;;;2.15;0.50;;;18.20;99.90;;;;;;5075546;28;20079;-72
2022/07/07 08:17:06;;;;;;;4.15;0.80;;;18.30;99.90;;;;;;5075294;28;20101;-72
2022/07/07 08:19:32;;;;;;;3.28;0.50;;;18.30;99.90;;;;;;5058969;28;20040;-72
2022/07/07 08:21:58;;;;;;;6.38;1.15;;;18.30;99.90;;;;;;5075414;28;20543;-72
2022/07/07 08:24:23;;;;;;;3.97;1.10;;;18.30;99.90;;;;;;5075179;28;20045;-72
2022/07/07 08:26:49;;;;;;;5.93;0.95;;;18.30;99.90;;;;;;5075132;28;20121;-72
2022/07/07 08:29:14;;;;;;;3.45;0.70;;;18.30;99.90;;;;;;5075027;28;20044;-72
2022/07/07 08:31:40;;;;;;;6.22;0.70;;;18.20;99.90;;;;;;5058291;28;20040;-72
2022/07/07 08:34:07;;;;;;;6.18;0.85;;;18.20;99.90;;;;;;5074982;28;20060;-72
2022/07/07 08:36:33;;;;;;;3.72;0.60;;;18.10;99.90;;;;;;5074942;28;20040;-72
2022/07/07 08:38:59;;;;;;;5.22;0.63;;;18.10;99.90;;;;;;5074908;28;20051;-72
2022/07/07 08:41:25;;;;;;;4.25;0.88;;;18.30;99.90;;;;;;5074894;28;20131;-72
2022/07/07 08:43:51;;;;;;;3.65;0.75;;;18.50;99.90;;;;;;5058501;28;20044;-72
2022/07/07 08:46:17;;;;;;;5.43;1.10;;;18.70;99.90;;;;;;5058274;28;20548;-72
2022/07/07 08:48:43;;;;;;;4.32;0.80;;;19.00;99.90;;;;;;5074997;28;20124;-72
2022/07/07 08:51:09;;;;;;;5.53;0.82;;;19.20;99.90;;;;;;5074899;28;20048;-72
2022/07/07 08:53:37;;;;;;;5.65;1.15;;;19.30;99.90;;;;;;5075283;28;20040;-73
2022/07/07 08:56:05;;;;;;;7.45;1.25;;;19.40;99.90;;;;;;5074638;28;20032;-73
2022/07/07 08:58:32;;;;;;;7.63;0.98;;;19.40;99.90;;;;;;5074906;28;20493;-72
2022/07/07 09:00:58;;;;;;;7.30;1.20;;;19.30;99.90;;;;;;5074659;28;20079;-73
2022/07/07 09:03:26;;;;;;;4.57;1.30;;;19.20;99.90;;;;;;5074553;28;20049;-72
2022/07/07 09:05:53;;;;;;;7.28;1.42;;;19.20;99.90;;;;;;5074377;28;20174;-72
2022/07/07 09:08:21;;;;;;;5.90;1.13;;;19.00;99.90;;;;;;5073150;28;20056;-73
2022/07/07 09:10:47;;;;;;;6.60;1.23;;;18.90;99.90;;;;;;5074200;28;20409;-73
2022/07/07 09:13:26;;;;;;;8.85;1.40;;;18.70;99.90;;;;;;5074134;28;20036;-73
2022/07/07 09:15:53;;;;;;;6.20;1.10;;;18.50;99.90;;;;;;5074242;28;20033;-73
2022/07/07 09:18:36;;;;;;;6.93;1.30;;;18.30;99.90;;;;;;5074225;28;20123;-73
2022/07/07 09:21:04;;;;;;;6.35;1.23;;;18.30;99.90;;;;;;5074238;28;20085;-73
2022/07/07 09:23:30;;;;;;;7.95;1.70;;;18.30;99.90;;;;;;5073987;28;20041;-73
2022/07/07 09:25:57;;;;;;;8.88;2.03;;;18.50;99.90;;;;;;5057393;28;20127;-72
2022/07/07 09:28:27;;;;;;;9.77;1.88;;;18.90;99.90;;;;;;5073954;28;20044;-72
2022/07/07 09:30:54;;;;;;;8.57;1.70;;;19.00;99.90;;;;;;5075135;28;20036;-72
2022/07/07 09:33:29;;;;;;;9.30;1.88;;;19.10;99.90;;;;;;5073769;28;20041;-72
2022/07/07 09:38:41;;;;;;;5.80;1.13;;;18.80;99.90;;;;;;5074931;28;20036;-72
2022/07/07 09:41:13;;;;;;;8.60;1.40;;;18.60;99.90;;;;;;5073762;28;20125;-71
2022/07/07 09:43:52;;;;;;;5.57;1.53;;;18.50;99.90;;;;;;5073924;28;20048;-71
2022/07/07 09:46:18;;;;;;;3.85;1.10;;;18.50;99.90;;;;;;5073910;28;20048;-71
2022/07/07 09:48:47;;;;;;;5.18;1.08;;;18.50;99.90;;;;;;5073633;28;20040;-72
2022/07/07 09:51:17;;;;;;;4.47;1.15;;;18.70;99.90;;;;;;5073593;28;20041;-72
2022/07/07 09:53:58;;;;;;;5.28;1.30;;;18.90;99.90;;;;;;5074220;28;20476;-71
2022/07/07 09:56:28;;;;;;;4.28;1.10;;;19.20;99.90;;;;;;5073832;28;20036;-71
2022/07/07 09:58:55;;;;;;;4.40;1.25;;;19.40;99.90;;;;;;5073520;28;20036;-72
2022/07/07 10:01:25;;;;;;;8.60;1.52;;;19.40;99.90;;;;;;5056953;28;20128;-72
2022/07/07 10:03:54;;;;;;;7.63;1.65;;;19.30;99.90;;;;;;5056602;28;20040;-71
2022/07/07 10:06:20;;;;;;;5.75;1.23;;;19.30;99.90;;;;;;5073263;28;20417;-71
2022/07/07 10:08:49;;;;;;;7.03;1.13;;;19.30;99.90;;;;;;5073263;28;20044;-72
2022/07/07 10:11:18;;;;;;;7.03;1.33;;;19.20;99.90;;;;;;5073131;28;20044;-72
2022/07/07 10:13:47;;;;;;;7.20;1.38;;;19.10;99.90;;;;;;5073084;28;20045;-72
2022/07/07 10:16:13;;;;;;;8.15;1.60;;;19.00;99.90;;;;;;5073043;28;20032;-71
2022/07/07 10:18:39;;;;;;;6.30;1.13;;;18.90;99.90;;;;;;5072938;28;20439;-71
2022/07/07 10:21:05;;;;;;;6.35;1.17;;;18.80;99.90;;;;;;5056588;28;20033;-71
2022/07/07 10:23:33;;;;;;;8.95;1.80;;;18.80;99.90;;;;;;5072867;28;20512;-72
2022/07/07 10:26:03;;;;;;;7.57;1.20;;;18.90;99.90;;;;;;5072914;28;20044;-73
2022/07/07 10:28:51;;;;;;;8.48;1.33;;;19.30;99.90;;;;;;5072801;28;20040;-71
2022/07/07 10:31:23;;;;;;;7.15;1.88;;;19.40;99.90;;;;;;5056554;28;20051;-72
2022/07/07 10:33:59;;;;;;;8.20;1.33;;;19.40;99.90;;;;;;5056167;28;20040;-72
2022/07/07 10:36:25;;;;;;;7.88;1.50;;;19.30;99.90;;;;;;5056183;28;20040;-72
2022/07/07 10:38:56;;;;;;;6.75;1.55;;;19.00;99.90;;;;;;5072622;28;20115;-72
2022/07/07 10:41:25;;;;;;;7.20;1.60;;;18.80;99.90;;;;;;5072621;28;20041;-72
2022/07/07 10:44:08;;;;;;;6.00;1.10;;;18.70;99.90;;;;;;5072752;28;20540;-72
2022/07/07 10:46:35;;;;;;;7.47;1.20;;;18.50;99.90;;;;;;5072557;28;20615;-72
2022/07/07 10:49:13;;;;;;;6.82;1.30;;;18.30;99.90;;;;;;5072694;28;20150;-72
2022/07/07 10:51:55;;;;;;;10.18;1.30;;;18.30;99.90;;;;;;5072276;28;20155;-72
2022/07/07 10:54:36;;;;;;;7.60;1.27;;;18.30;99.90;;;;;;5072372;28;20045;-72
2022/07/07 10:57:01;;;;;;;10.38;1.70;;;18.20;99.90;;;;;;5072327;28;20082;-71
2022/07/07 10:59:28;;;;;;;10.05;2.28;;;18.10;99.90;;;;;;5072452;28;20099;-71
2022/07/07 11:02:02;;;;;;;10.95;2.38;;;18.00;99.90;;;;;;5072118;28;20062;-71
2022/07/07 11:04:43;;;;;;;7.65;1.65;;;17.90;99.90;;;;;;5055547;28;20078;-72
2022/07/07 11:07:14;;;;;;;9.43;1.85;;;17.80;99.90;;;;;;5072135;28;20056;-72
2022/07/07 11:09:57;;;;;;;11.95;2.40;;;17.90;99.90;;;;;;5072241;28;20040;-72
2022/07/07 11:12:42;;;;;;;11.02;2.13;;;17.90;99.90;;;;;;5071953;28;20044;-72
2022/07/07 11:15:22;;;;;;;9.93;1.42;;;18.10;99.90;;;;;;5072310;28;20036;-72
2022/07/07 11:17:57;;;;;;;10.90;2.58;;;18.30;99.90;;;;;;5072034;28;20090;-72
2022/07/07 11:20:31;;;;;;;10.63;2.13;;;18.60;99.90;;;;;;5071958;28;20037;-71
2022/07/07 11:23:10;;;;;;;10.27;1.67;;;18.70;99.90;;;;;;5072219;28;20044;-71
2022/07/07 11:25:36;;;;;;;10.65;1.45;;;18.80;99.90;;;;;;5072173;28;20055;-72
2022/07/07 11:28:05;;;;;;;12.90;2.13;;;18.70;99.90;;;;;;5071868;28;20044;-72
2022/07/07 11:30:31;;;;;;;8.30;2.17;;;18.70;99.90;;;;;;5071169;28;20033;-72
2022/07/07 11:32:59;;;;;;;9.77;1.95;;;18.60;99.90;;;;;;5071792;28;20040;-72
2022/07/07 11:35:40;;;;;;;12.95;2.42;;;18.40;99.90;;;;;;5071781;28;20036;-72
2022/07/07 11:38:09;;;;;;;12.48;2.58;;;18.30;99.90;;;;;;5071859;28;20037;-72
2022/07/07 11:40:38;;;;;;;10.20;2.55;;;18.20;99.90;;;;;;5071718;28;20041;-72
2022/07/07 11:43:05;;;;;;;16.75;2.72;;;18.20;99.90;;;;;;5055012;28;20515;-72
2022/07/07 11:45:31;;;;;;;16.85;3.15;;;18.20;99.90;;;;;;5071761;28;20046;-72
2022/07/07 11:48:03;;;;;;;14.60;2.75;;;18.30;99.90;;;;;;5072001;28;20045;-71
2022/07/07 11:50:33;;;;;;;14.60;3.45;;;18.30;99.90;;;;;;5071694;28;20037;-71
2022/07/07 11:53:02;;;;;;;19.77;3.17;;;18.20;99.90;;;;;;5071541;28;20531;-72
2022/07/07 11:55:29;;;;;;;12.80;2.65;;;18.10;99.90;;;;;;5071662;28;20119;-72
2022/07/07 11:57:58;;;;;;;13.82;2.70;;;18.10;99.90;;;;;;5071844;28;20179;-72
2022/07/07 12:00:27;;;;;;;12.20;2.30;;;18.20;99.90;;;;;;5071621;28;20044;-72
2022/07/07 12:02:55;;;;;;;12.95;2.45;;;18.30;99.90;;;;;;5054831;28;20040;-72
2022/07/07 12:05:23;;;;;;;14.52;2.80;;;18.40;99.90;;;;;;5071499;28;20066;-72
2022/07/07 12:07:58;;;;;;;18.83;3.00;;;18.50;99.90;;;;;;5071522;28;20070;-72
2022/07/07 12:10:30;;;;;;;10.52;2.17;;;18.70;99.90;;;;;;5054767;28;20043;-72
2022/07/07 12:12:58;;;;;;;15.93;2.38;;;18.90;99.90;;;;;;5071354;28;20044;-72
2022/07/07 12:15:34;;;;;;;15.98;3.28;;;19.00;99.90;;;;;;5071487;28;20044;-72
2022/07/07 12:18:01;;;;;;;8.60;2.10;;;19.20;99.90;;;;;;5071729;28;20033;-72
2022/07/07 12:20:28;;;;;;;10.88;2.20;;;19.30;99.90;;;;;;5071363;28;20036;-72
2022/07/07 12:22:56;;;;;;;16.77;3.00;;;19.20;99.90;;;;;;5054614;28;20052;-72
2022/07/07 12:25:24;;;;;;;14.48;2.42;;;19.20;99.90;;;;;;5071331;28;20044;-72
2022/07/07 12:28:05;;;;;;;13.25;2.08;;;19.10;99.90;;;;;;5071349;28;20122;-72
2022/07/07 12:30:33;;;;;;;12.10;2.80;;;19.10;99.90;;;;;;5054634;28;20045;-72
2022/07/07 12:32:59;;;;;;;12.57;2.50;;;19.00;99.90;;;;;;5071160;28;20512;-72
2022/07/07 12:35:28;;;;;;;15.73;2.83;;;18.90;99.90;;;;;;5054643;28;20044;-72
2022/07/07 12:37:54;;;;;;;13.75;2.88;;;18.90;99.90;;;;;;5054808;28;20097;-72
2022/07/07 12:40:21;;;;;;;17.55;2.65;;;18.90;99.90;;;;;;5071264;28;20562;-72
2022/07/07 12:42:47;;;;;;;18.23;3.33;;;19.00;99.90;;;;;;5073108;28;20044;-72
2022/07/07 12:45:14;;;;;;;18.00;2.58;;;19.10;99.90;;;;;;5074833;28;20071;-72
2022/07/07 12:47:45;;;;;;;14.63;2.42;;;19.20;99.90;;;;;;5075084;28;20040;-72